Council, Virginia
Current Conditions -  °F | °C
As of 7:55 PM on Friday 24 Oct 2014 (Local Time) from KJFZ Reporting Station
Clear Clear  
Wind Chill: 54°   Ceiling: Unl
Heat Index: 54°   Visibility: 10mi
Dew Point: 40°   Wind: 5mph
Humidity: 58%   Direction: 320°NW
Pressure: 30.08"   Gusts: NA
Location:  37.0328°N, 82.0042°W
Report Text: KJFZ 242355Z AUTO 32004KT 10SM CLR 12/04 A3008 RMK AO2 T01240043 10168 20124
Loading
Personal Weather Stations






























Interactive Weather Map
Tropical Storm Tracking
New forecast layout! Learn more

10-Day Weather Forecast

Advertisements
Track Severe Weather on mobile